createdAt,value
2022-10-19T00:01:58.430Z,18
2022-10-19T00:03:58.441Z,16
2022-10-19T00:05:58.527Z,21
2022-10-19T00:07:58.580Z,19
2022-10-19T00:09:58.674Z,15
2022-10-19T00:11:58.783Z,15
2022-10-19T00:13:58.855Z,18
2022-10-19T00:15:58.946Z,17
2022-10-19T00:17:59.035Z,17
2022-10-19T00:19:59.134Z,16
2022-10-19T00:21:59.243Z,14
2022-10-19T00:23:59.323Z,16
2022-10-19T00:25:59.422Z,17
2022-10-19T00:27:59.514Z,14
2022-10-19T00:29:59.656Z,15
2022-10-19T00:31:59.705Z,15
2022-10-19T00:33:59.791Z,14
2022-10-19T00:35:59.876Z,14
2022-10-19T00:37:59.976Z,15
2022-10-19T00:40:00.199Z,13
2022-10-19T00:42:00.172Z,13
2022-10-19T00:44:00.261Z,15
2022-10-19T00:46:00.319Z,13
2022-10-19T00:48:00.425Z,15
2022-10-19T00:50:00.554Z,16
2022-10-19T00:52:00.603Z,15
2022-10-19T00:54:00.671Z,14
2022-10-19T00:56:00.763Z,14
2022-10-19T01:00:00.958Z,14
2022-10-19T01:02:01.048Z,15
2022-10-19T01:04:01.118Z,16
2022-10-19T01:06:01.207Z,15
2022-10-19T01:08:01.415Z,18
2022-10-19T01:10:01.394Z,15
2022-10-19T01:12:01.469Z,14
2022-10-19T01:14:01.549Z,15
2022-10-19T01:16:01.609Z,15
2022-10-19T01:18:01.702Z,15
2022-10-19T01:20:01.804Z,16
2022-10-19T01:22:01.880Z,14
2022-10-19T01:24:01.963Z,14
2022-10-19T01:26:02.036Z,15
2022-10-19T01:28:02.121Z,18
2022-10-19T01:30:02.199Z,14
2022-10-19T01:32:32.332Z,18
2022-10-19T01:34:32.428Z,16
2022-10-19T01:36:32.505Z,15
2022-10-19T01:38:32.621Z,17
2022-10-19T01:40:32.736Z,18
2022-10-19T01:42:32.849Z,16
2022-10-19T01:44:32.968Z,19
2022-10-19T01:46:33.079Z,17
2022-10-19T01:48:33.183Z,17
2022-10-19T01:50:33.364Z,19
2022-10-19T01:52:33.755Z,19
2022-10-19T01:54:33.523Z,18
2022-10-19T01:56:33.623Z,15
2022-10-19T01:58:33.751Z,14
2022-10-19T02:00:33.860Z,14
2022-10-19T02:02:34.269Z,13
2022-10-19T02:04:34.093Z,14
2022-10-19T02:06:34.205Z,14
2022-10-19T02:08:34.305Z,11
2022-10-19T02:10:34.416Z,10
2022-10-19T02:12:34.861Z,12
2022-10-19T02:14:34.636Z,12
2022-10-19T02:16:34.724Z,11
2022-10-19T02:18:34.851Z,10
2022-10-19T02:20:34.961Z,11
2022-10-19T02:22:35.412Z,10
2022-10-19T02:24:35.192Z,10
2022-10-19T02:26:35.312Z,13
2022-10-19T02:28:35.421Z,14
2022-10-19T02:30:35.546Z,13
2022-10-19T02:32:35.936Z,14
2022-10-19T02:34:35.749Z,16
2022-10-19T02:36:35.895Z,13
2022-10-19T02:38:35.969Z,15
2022-10-19T02:40:36.077Z,15
2022-10-19T02:42:36.648Z,14
2022-10-19T02:44:36.302Z,12
2022-10-19T02:46:36.488Z,14
2022-10-19T02:48:36.527Z,12
2022-10-19T02:50:36.616Z,10
2022-10-19T02:52:36.771Z,10
2022-10-19T02:54:36.827Z,11
2022-10-19T02:56:36.937Z,12
2022-10-19T02:58:37.037Z,9
2022-10-19T03:00:37.217Z,12
2022-10-19T03:02:37.356Z,10
2022-10-19T03:04:37.397Z,9
2022-10-19T03:06:37.490Z,10
2022-10-19T03:08:37.603Z,10
2022-10-19T03:10:37.679Z,11
2022-10-19T03:12:37.846Z,11
2022-10-19T03:14:37.891Z,10
2022-10-19T03:16:37.989Z,12
2022-10-19T03:18:38.097Z,12
2022-10-19T03:20:38.217Z,9
2022-10-19T03:22:38.342Z,11
2022-10-19T03:24:38.456Z,11
2022-10-19T03:26:38.564Z,11
2022-10-19T03:28:38.831Z,14
2022-10-19T03:30:38.755Z,13
2022-10-19T03:32:38.871Z,14
2022-10-19T03:34:39.077Z,12
2022-10-19T03:38:39.373Z,12
2022-10-19T03:40:39.308Z,10
2022-10-19T03:42:39.419Z,12
2022-10-19T03:44:39.517Z,11
2022-10-19T03:46:39.629Z,11
2022-10-19T03:48:39.737Z,13
2022-10-19T03:50:39.862Z,11
2022-10-19T03:52:39.965Z,12
2022-10-19T03:54:40.082Z,13
2022-10-19T03:56:40.197Z,14
2022-10-19T03:58:40.297Z,14
2022-10-19T04:00:40.467Z,13
2022-10-19T04:02:40.525Z,12
2022-10-19T04:04:40.602Z,11
2022-10-19T04:06:40.726Z,12
2022-10-19T04:08:40.828Z,11
2022-10-19T04:10:40.905Z,12
2022-10-19T04:12:41.028Z,13
2022-10-19T04:14:56.392Z,10
2022-10-19T04:16:41.225Z,11
2022-10-19T04:18:41.337Z,15
2022-10-19T04:20:41.458Z,15
2022-10-19T04:22:41.572Z,17
2022-10-19T04:24:41.669Z,16
2022-10-19T04:26:41.770Z,16
2022-10-19T04:30:41.980Z,15
2022-10-19T04:32:42.085Z,15
2022-10-19T04:34:42.165Z,14
2022-10-19T04:36:42.309Z,14
2022-10-19T04:38:42.368Z,14
2022-10-19T04:40:42.543Z,15
2022-10-19T04:42:42.596Z,12
2022-10-19T04:44:42.697Z,23
2022-10-19T04:46:42.830Z,21
2022-10-19T04:48:42.905Z,25
2022-10-19T04:50:43.028Z,19
2022-10-19T04:52:43.134Z,18
2022-10-19T04:54:43.233Z,15
2022-10-19T04:56:43.407Z,14
2022-10-19T04:58:43.453Z,12
2022-10-19T05:00:43.548Z,12
2022-10-19T05:02:43.628Z,14
2022-10-19T05:04:45.183Z,16
2022-10-19T05:06:43.836Z,16
2022-10-19T05:08:43.919Z,13
2022-10-19T05:10:47.009Z,14
2022-10-19T05:12:44.123Z,12
2022-10-19T05:14:44.244Z,13
2022-10-19T05:16:44.386Z,15
2022-10-19T05:18:44.460Z,15
2022-10-19T05:20:44.569Z,15
2022-10-19T05:22:44.675Z,15
2022-10-19T05:24:44.778Z,20
2022-10-19T05:26:44.858Z,20
2022-10-19T05:28:45.022Z,24
2022-10-19T05:30:48.827Z,22
2022-10-19T05:32:45.206Z,20
2022-10-19T05:34:45.296Z,21
2022-10-19T05:36:45.373Z,21
2022-10-19T05:38:45.491Z,22
2022-10-19T05:40:46.370Z,20
2022-10-19T05:42:45.701Z,26
2022-10-19T05:44:45.803Z,21
2022-10-19T05:48:46.022Z,24
2022-10-19T05:50:46.122Z,19
2022-10-19T05:52:46.213Z,19
2022-10-19T05:54:46.322Z,22
2022-10-19T05:56:46.411Z,19
2022-10-19T05:58:46.557Z,18
2022-10-19T06:00:46.615Z,21
2022-10-19T06:02:46.713Z,20
2022-10-19T06:04:46.821Z,19
2022-10-19T06:06:46.929Z,18
2022-10-19T06:08:47.026Z,23
2022-10-19T06:10:47.132Z,24
2022-10-19T06:12:47.223Z,25
2022-10-19T06:14:47.339Z,30
2022-10-19T06:16:47.420Z,23
2022-10-19T06:18:47.581Z,21
2022-10-19T06:20:47.640Z,23
2022-10-19T06:22:47.726Z,23
2022-10-19T06:24:47.843Z,22
2022-10-19T06:26:47.942Z,24
2022-10-19T06:28:48.042Z,28
2022-10-19T06:30:48.255Z,34
2022-10-19T06:32:48.413Z,35
2022-10-19T06:34:49.349Z,32
2022-10-19T06:36:48.407Z,31
2022-10-19T06:38:48.506Z,26
2022-10-19T06:40:48.623Z,27
2022-10-19T06:42:48.720Z,27
2022-10-19T06:44:48.823Z,22
2022-10-19T06:46:48.908Z,25
2022-10-19T06:48:49.008Z,21
2022-10-19T06:52:49.219Z,20
2022-10-19T06:54:49.320Z,20
2022-10-19T06:58:49.513Z,18
2022-10-19T07:00:49.648Z,17
2022-10-19T07:04:49.829Z,16
2022-10-19T07:06:49.905Z,18
2022-10-19T07:08:49.990Z,30
2022-10-19T07:10:50.083Z,22
2022-10-19T07:12:50.190Z,22
2022-10-19T07:14:50.276Z,21
2022-10-19T07:16:50.388Z,22
2022-10-19T07:18:50.475Z,22
2022-10-19T07:20:50.577Z,23
2022-10-19T07:22:50.659Z,21
2022-10-19T07:24:50.759Z,22
2022-10-19T07:26:50.862Z,20
2022-10-19T07:28:50.932Z,19
2022-10-19T07:30:51.037Z,20
2022-10-19T07:32:51.136Z,22
2022-10-19T07:34:51.225Z,19
2022-10-19T07:36:51.316Z,20
2022-10-19T07:38:51.427Z,22
2022-10-19T07:40:51.529Z,19
2022-10-19T07:42:51.613Z,17
2022-10-19T07:44:51.704Z,19
2022-10-19T07:46:51.804Z,19
2022-10-19T07:48:51.901Z,18
2022-10-19T07:50:52.002Z,18
2022-10-19T07:52:52.101Z,22
2022-10-19T07:54:52.202Z,24
2022-10-19T07:56:52.285Z,21
2022-10-19T07:58:52.356Z,20
2022-10-19T08:00:52.557Z,20
2022-10-19T08:03:05.074Z,17
2022-10-19T08:05:01.241Z,19
2022-10-19T08:06:52.689Z,17
2022-10-19T08:08:52.894Z,20
2022-10-19T08:10:52.893Z,15
2022-10-19T08:12:52.987Z,17
2022-10-19T08:14:53.061Z,15
2022-10-19T08:16:53.152Z,18
2022-10-19T08:18:53.310Z,16
2022-10-19T08:20:53.331Z,18
2022-10-19T08:22:56.495Z,15
2022-10-19T08:24:53.509Z,15
2022-10-19T08:26:53.612Z,16
2022-10-19T08:28:53.686Z,15
2022-10-19T08:30:53.780Z,15
2022-10-19T08:32:53.869Z,15
2022-10-19T08:34:53.960Z,16
2022-10-19T08:36:54.062Z,14
2022-10-19T08:38:54.151Z,16
2022-10-19T08:40:54.234Z,15
2022-10-19T08:42:54.316Z,14
2022-10-19T08:44:54.402Z,15
2022-10-19T08:46:54.454Z,16
2022-10-19T08:48:54.554Z,19
2022-10-19T08:50:54.615Z,15
2022-10-19T08:52:54.713Z,16
2022-10-19T08:55:24.863Z,14
2022-10-19T08:57:24.962Z,15
2022-10-19T08:59:25.063Z,17
2022-10-19T09:01:25.164Z,14
2022-10-19T09:03:37.918Z,15
2022-10-19T09:05:25.344Z,13
2022-10-19T09:07:25.457Z,15
2022-10-19T09:09:25.562Z,15
2022-10-19T09:11:25.727Z,14
2022-10-19T09:13:29.250Z,21
2022-10-19T09:15:25.906Z,17
2022-10-19T09:17:25.985Z,18
2022-10-19T09:19:26.271Z,16
2022-10-19T09:21:33.361Z,14
2022-10-19T09:23:26.323Z,15
2022-10-19T09:27:26.555Z,17
2022-10-19T09:29:26.653Z,15
2022-10-19T09:31:30.378Z,13
2022-10-19T09:33:26.848Z,15
2022-10-19T09:35:26.949Z,13
2022-10-19T09:37:27.145Z,15
2022-10-19T09:39:29.454Z,15
2022-10-19T09:41:27.246Z,13
2022-10-19T09:43:27.349Z,12
2022-10-19T09:45:27.436Z,11
2022-10-19T09:47:27.548Z,12
2022-10-19T09:49:27.652Z,12
2022-10-19T09:51:27.808Z,15
2022-10-19T09:53:27.853Z,15
2022-10-19T09:55:27.963Z,12
2022-10-19T09:57:28.066Z,12
2022-10-19T09:59:28.167Z,12
2022-10-19T10:01:34.137Z,12
2022-10-19T10:03:28.374Z,14
2022-10-19T10:05:28.485Z,13
2022-10-19T10:07:28.657Z,12
2022-10-19T10:09:28.654Z,12
2022-10-19T10:11:28.774Z,18
2022-10-19T10:13:28.832Z,15
2022-10-19T10:15:28.933Z,16
2022-10-19T10:17:29.049Z,13
2022-10-19T10:19:29.142Z,16
2022-10-19T10:21:29.237Z,13
2022-10-19T10:23:29.290Z,13
2022-10-19T10:25:29.404Z,13
2022-10-19T10:27:29.515Z,16
2022-10-19T10:29:29.604Z,14
2022-10-19T10:31:29.700Z,13
2022-10-19T10:35:29.908Z,12
2022-10-19T10:37:30.004Z,12
2022-10-19T10:39:30.092Z,15
2022-10-19T10:41:30.186Z,15
2022-10-19T10:43:30.274Z,13
2022-10-19T10:45:30.369Z,14
2022-10-19T10:47:30.468Z,15
2022-10-19T10:51:30.656Z,14
2022-10-19T10:53:30.772Z,15
2022-10-19T10:55:30.824Z,13
2022-10-19T10:57:30.902Z,13
2022-10-19T10:59:31.002Z,12
2022-10-19T11:01:31.143Z,13
2022-10-19T11:03:31.182Z,13
2022-10-19T11:05:31.238Z,13
2022-10-19T11:07:31.424Z,13
2022-10-19T11:09:31.430Z,12
2022-10-19T11:11:31.531Z,15
2022-10-19T11:13:31.617Z,12
2022-10-19T11:15:31.695Z,14
2022-10-19T11:17:32.080Z,11
2022-10-19T11:19:31.858Z,14
2022-10-19T11:21:31.956Z,15
2022-10-19T11:23:32.046Z,13
2022-10-19T11:25:32.134Z,13
2022-10-19T11:27:32.477Z,12
2022-10-19T11:29:32.303Z,13
2022-10-19T11:31:32.375Z,14
2022-10-19T11:33:32.480Z,12
2022-10-19T11:35:32.544Z,13
2022-10-19T11:38:18.303Z,13
2022-10-19T11:40:02.787Z,12
2022-10-19T11:42:02.883Z,15
2022-10-19T11:44:03.000Z,12
2022-10-19T11:48:03.192Z,13
2022-10-19T11:50:03.424Z,15
2022-10-19T11:52:03.401Z,12
2022-10-19T11:54:03.512Z,13
2022-10-19T11:56:03.661Z,14
2022-10-19T11:58:03.728Z,11
2022-10-19T12:00:14.138Z,11
2022-10-19T12:02:03.969Z,13
2022-10-19T12:04:04.000Z,11
2022-10-19T12:06:04.085Z,11
2022-10-19T12:08:04.199Z,11
2022-10-19T12:10:04.366Z,13
2022-10-19T12:12:04.413Z,11
2022-10-19T12:14:04.517Z,13
2022-10-19T12:16:04.651Z,11
2022-10-19T12:18:04.724Z,10
2022-10-19T12:20:04.814Z,10
2022-10-19T12:22:04.903Z,11
2022-10-19T12:24:05.023Z,10
2022-10-19T12:26:05.193Z,12
2022-10-19T12:28:05.207Z,10
2022-10-19T12:30:05.291Z,10
2022-10-19T12:32:05.413Z,10
2022-10-19T12:34:05.504Z,11
2022-10-19T12:38:05.702Z,13
2022-10-19T12:40:05.813Z,12
2022-10-19T12:42:05.904Z,11
2022-10-19T12:44:06.007Z,15
2022-10-19T12:46:06.105Z,11
2022-10-19T12:48:06.195Z,11
2022-10-19T12:50:06.350Z,14
2022-10-19T12:52:06.392Z,12
2022-10-19T12:54:06.476Z,13
2022-10-19T12:56:06.582Z,13
2022-10-19T12:58:06.719Z,13
2022-10-19T13:00:06.763Z,13
2022-10-19T13:02:06.847Z,12
2022-10-19T13:04:06.905Z,15
2022-10-19T13:06:06.983Z,14
2022-10-19T13:08:09.367Z,11
2022-10-19T13:10:07.154Z,11
2022-10-19T13:12:07.232Z,11
2022-10-19T13:14:07.332Z,12
2022-10-19T13:16:07.417Z,12
2022-10-19T13:18:07.502Z,11
2022-10-19T13:20:07.576Z,11
2022-10-19T13:22:07.674Z,13
2022-10-19T13:24:07.749Z,10
2022-10-19T13:26:07.828Z,13
2022-10-19T13:28:07.940Z,13
2022-10-19T13:30:07.981Z,11
2022-10-19T13:32:08.059Z,14
2022-10-19T13:34:08.140Z,14
2022-10-19T13:36:08.231Z,14
2022-10-19T13:38:08.351Z,12
2022-10-19T13:40:08.386Z,14
2022-10-19T13:42:08.480Z,13
2022-10-19T13:44:08.535Z,12
2022-10-19T13:46:38.688Z,15
2022-10-19T13:48:38.796Z,13
2022-10-19T13:50:38.915Z,12
2022-10-19T13:52:39.016Z,14
2022-10-19T13:54:39.113Z,13
2022-10-19T13:56:39.227Z,11
2022-10-19T13:58:39.343Z,13
2022-10-19T14:00:39.435Z,13
2022-10-19T14:02:39.537Z,13
2022-10-19T14:04:39.631Z,13
2022-10-19T14:06:39.747Z,20
2022-10-19T14:08:39.933Z,13
2022-10-19T14:11:00.981Z,10
2022-10-19T14:12:40.058Z,16
2022-10-19T14:16:40.242Z,12
2022-10-19T14:18:40.391Z,14
2022-10-19T14:22:40.676Z,12
2022-10-19T14:24:40.698Z,12
2022-10-19T14:26:40.789Z,16
2022-10-19T14:28:40.886Z,14
2022-10-19T14:30:40.982Z,14
2022-10-19T14:32:41.103Z,13
2022-10-19T14:34:41.200Z,12
2022-10-19T14:36:41.306Z,20
2022-10-19T14:38:41.466Z,25
2022-10-19T14:40:41.526Z,14
2022-10-19T14:42:41.618Z,17
2022-10-19T14:44:41.819Z,18
2022-10-19T14:46:41.827Z,14
2022-10-19T14:48:41.915Z,15
2022-10-19T14:50:42.005Z,15
2022-10-19T14:52:42.093Z,21
2022-10-19T14:54:42.194Z,17
2022-10-19T14:56:42.293Z,15
2022-10-19T14:58:42.440Z,15
2022-10-19T15:00:42.502Z,15
2022-10-19T15:02:42.595Z,14
2022-10-19T15:04:42.691Z,15
2022-10-19T15:06:42.758Z,15
2022-10-19T15:08:42.922Z,19
2022-10-19T15:10:42.932Z,18
2022-10-19T15:12:43.038Z,17
2022-10-19T15:14:43.130Z,16
2022-10-19T15:16:43.241Z,16
2022-10-19T15:18:49.783Z,16
2022-10-19T15:20:49.290Z,22
2022-10-19T15:22:43.497Z,17
2022-10-19T15:24:43.612Z,20
2022-10-19T15:26:43.688Z,19
2022-10-19T15:28:43.773Z,17
2022-10-19T15:30:43.862Z,18
2022-10-19T15:32:43.973Z,20
2022-10-19T15:34:44.054Z,21
2022-10-19T15:36:44.141Z,19
2022-10-19T15:38:44.233Z,19
2022-10-19T15:40:44.322Z,20
2022-10-19T15:42:44.432Z,21
2022-10-19T15:44:44.500Z,17
2022-10-19T15:46:44.585Z,22
2022-10-19T15:48:44.669Z,24
2022-10-19T15:50:44.874Z,19
2022-10-19T15:52:44.863Z,20
2022-10-19T15:54:44.949Z,15
2022-10-19T15:56:45.034Z,16
2022-10-19T15:58:45.125Z,14
2022-10-19T16:00:45.224Z,16
2022-10-19T16:03:15.363Z,14
2022-10-19T16:05:15.474Z,15
2022-10-19T16:07:15.597Z,15
2022-10-19T16:09:15.708Z,16
2022-10-19T16:11:15.822Z,17
2022-10-19T16:13:15.943Z,15
2022-10-19T16:15:16.054Z,17
2022-10-19T16:17:16.168Z,19
2022-10-19T16:19:16.287Z,19
2022-10-19T16:21:16.449Z,21
2022-10-19T16:23:16.574Z,22
2022-10-19T16:25:16.645Z,25
2022-10-19T16:27:16.763Z,28
2022-10-19T16:29:16.856Z,25
2022-10-19T16:31:16.977Z,26
2022-10-19T16:33:17.093Z,27
2022-10-19T16:35:17.199Z,27
2022-10-19T16:37:17.312Z,34
2022-10-19T16:39:17.421Z,39
2022-10-19T16:41:17.517Z,33
2022-10-19T16:43:17.638Z,32
2022-10-19T16:45:17.747Z,31
2022-10-19T16:47:17.847Z,26
2022-10-19T16:49:17.939Z,33
2022-10-19T16:51:18.063Z,24
2022-10-19T16:53:18.146Z,26
2022-10-19T16:55:18.257Z,39
2022-10-19T16:57:18.357Z,73
2022-10-19T16:59:18.468Z,78
2022-10-19T17:01:18.626Z,38
2022-10-19T17:03:18.668Z,54
2022-10-19T17:05:18.818Z,30
2022-10-19T17:07:18.877Z,29
2022-10-19T17:09:42.622Z,27
2022-10-19T17:11:19.062Z,30
2022-10-19T17:13:19.172Z,29
2022-10-19T17:17:19.350Z,27
2022-10-19T17:19:19.445Z,28
2022-10-19T17:21:19.549Z,27
2022-10-19T17:23:19.657Z,26
2022-10-19T17:25:19.838Z,26
2022-10-19T17:27:19.932Z,28
2022-10-19T17:29:19.953Z,26
2022-10-19T17:31:20.063Z,32
2022-10-19T17:33:20.162Z,45
2022-10-19T17:35:20.273Z,31
2022-10-19T17:37:20.355Z,33
2022-10-19T17:39:23.261Z,36
2022-10-19T17:41:20.597Z,36
2022-10-19T17:43:20.652Z,30
2022-10-19T17:45:20.792Z,32
2022-10-19T17:47:20.850Z,31
2022-10-19T17:49:20.952Z,42
2022-10-19T17:51:21.058Z,47
2022-10-19T17:53:21.156Z,31
2022-10-19T17:57:21.358Z,39
2022-10-19T17:59:30.211Z,49
2022-10-19T18:01:21.533Z,42
2022-10-19T18:03:21.751Z,39
2022-10-19T18:05:21.758Z,35
2022-10-19T18:07:21.818Z,35
2022-10-19T18:09:21.919Z,29
2022-10-19T18:11:21.966Z,31
2022-10-19T18:13:22.048Z,28
2022-10-19T18:15:22.151Z,28
2022-10-19T18:17:25.434Z,33
2022-10-19T18:19:22.345Z,30
2022-10-19T18:21:22.434Z,32
2022-10-19T18:23:22.520Z,30
2022-10-19T18:27:22.703Z,28
2022-10-19T18:29:22.774Z,25
2022-10-19T18:31:22.860Z,25
2022-10-19T18:33:22.958Z,22
2022-10-19T18:35:23.019Z,22
2022-10-19T18:37:23.127Z,23
2022-10-19T18:39:23.256Z,23
2022-10-19T18:41:23.348Z,25
2022-10-19T18:43:23.405Z,24
2022-10-19T18:45:23.543Z,26
2022-10-19T18:47:23.587Z,26
2022-10-19T18:49:23.669Z,32
2022-10-19T18:51:55.547Z,29
2022-10-19T18:53:54.085Z,27
2022-10-19T18:55:54.204Z,24
2022-10-19T18:57:54.329Z,27
2022-10-19T18:59:54.439Z,30
2022-10-19T19:01:54.624Z,32
2022-10-19T19:03:54.667Z,34
2022-10-19T19:05:54.790Z,33
2022-10-19T19:07:54.899Z,32
2022-10-19T19:09:55.002Z,33
2022-10-19T19:11:55.132Z,31
2022-10-19T19:13:55.235Z,26
2022-10-19T19:15:55.333Z,26
2022-10-19T19:17:55.458Z,26
2022-10-19T19:19:55.571Z,27
2022-10-19T19:21:55.686Z,25
2022-10-19T19:23:55.815Z,28
2022-10-19T19:25:55.927Z,30
2022-10-19T19:27:56.010Z,30
2022-10-19T19:29:56.117Z,28
2022-10-19T19:31:56.222Z,29
2022-10-19T19:33:56.358Z,28
2022-10-19T19:35:56.447Z,28
2022-10-19T19:37:56.562Z,30
2022-10-19T19:39:56.649Z,28
2022-10-19T19:41:56.755Z,28
2022-10-19T19:43:56.858Z,32
2022-10-19T19:45:57.009Z,31
2022-10-19T19:47:57.089Z,31
2022-10-19T19:49:57.140Z,32
2022-10-19T19:51:57.238Z,27
2022-10-19T19:53:57.360Z,29
2022-10-19T19:55:57.465Z,27
2022-10-19T19:57:57.562Z,29
2022-10-19T19:59:57.651Z,32
2022-10-19T20:01:57.779Z,30
2022-10-19T20:03:57.857Z,28
2022-10-19T20:05:57.989Z,26
2022-10-19T20:07:58.052Z,27
2022-10-19T20:09:58.136Z,25
2022-10-19T20:11:58.288Z,26
2022-10-19T20:13:58.341Z,28
2022-10-19T20:15:58.428Z,30
2022-10-19T20:17:58.546Z,28
2022-10-19T20:19:58.632Z,26
2022-10-19T20:21:58.742Z,30
2022-10-19T20:23:58.825Z,31
2022-10-19T20:25:58.962Z,33
2022-10-19T20:27:59.015Z,29
2022-10-19T20:31:59.215Z,29
2022-10-19T20:33:59.317Z,26
2022-10-19T20:35:59.406Z,25
2022-10-19T20:37:59.489Z,26
2022-10-19T20:40:00.702Z,25
2022-10-19T20:41:59.683Z,23
2022-10-19T20:43:59.793Z,25
2022-10-19T20:45:59.868Z,26
2022-10-19T20:47:59.979Z,24
2022-10-19T20:50:00.174Z,22
2022-10-19T20:52:00.190Z,20
2022-10-19T20:54:00.271Z,22
2022-10-19T20:56:00.366Z,22
2022-10-19T20:58:00.471Z,22
2022-10-19T21:00:00.564Z,21
2022-10-19T21:02:00.710Z,19
2022-10-19T21:04:00.758Z,24
2022-10-19T21:06:00.855Z,23
2022-10-19T21:08:01.021Z,21
2022-10-19T21:10:01.050Z,19
2022-10-19T21:12:01.167Z,21
2022-10-19T21:14:01.236Z,18
2022-10-19T21:16:01.327Z,21
2022-10-19T21:18:01.417Z,20
2022-10-19T21:20:01.514Z,22
2022-10-19T21:22:01.623Z,20
2022-10-19T21:24:01.702Z,20
2022-10-19T21:26:01.785Z,19
2022-10-19T21:28:01.874Z,22
2022-10-19T21:30:01.956Z,21
2022-10-19T21:32:02.039Z,21
2022-10-19T21:34:02.119Z,22
2022-10-19T21:36:02.217Z,21
2022-10-19T21:38:02.326Z,19
2022-10-19T21:40:02.386Z,19
2022-10-19T21:42:02.470Z,23
2022-10-19T21:44:02.536Z,20
2022-10-19T21:46:02.643Z,23
2022-10-19T21:48:32.833Z,22
2022-10-19T21:50:32.904Z,22
2022-10-19T21:52:33.027Z,23
2022-10-19T21:54:33.149Z,23
2022-10-19T21:56:33.256Z,22
2022-10-19T21:58:33.358Z,21
2022-10-19T22:00:33.482Z,23
2022-10-19T22:02:33.587Z,25
2022-10-19T22:04:33.687Z,26
2022-10-19T22:06:33.799Z,22
2022-10-19T22:08:33.980Z,22
2022-10-19T22:10:34.005Z,24
2022-10-19T22:12:34.535Z,21
2022-10-19T22:14:34.249Z,20
2022-10-19T22:16:34.367Z,19
2022-10-19T22:18:34.446Z,21
2022-10-19T22:20:34.563Z,19
2022-10-19T22:22:34.900Z,20
2022-10-19T22:24:34.780Z,19
2022-10-19T22:26:34.882Z,19
2022-10-19T22:28:35.006Z,19
2022-10-19T22:30:35.152Z,20
2022-10-19T22:32:35.377Z,23
2022-10-19T22:34:35.310Z,20
2022-10-19T22:36:35.419Z,20
2022-10-19T22:38:35.518Z,21
2022-10-19T22:40:35.608Z,19
2022-10-19T22:42:36.130Z,21
2022-10-19T22:44:35.826Z,19
2022-10-19T22:46:35.935Z,18
2022-10-19T22:48:36.024Z,19
2022-10-19T22:50:36.129Z,19
2022-10-19T22:52:36.495Z,18
2022-10-19T22:54:36.356Z,18
2022-10-19T22:56:36.440Z,18
2022-10-19T22:58:36.555Z,17
2022-10-19T23:00:36.666Z,18
2022-10-19T23:02:37.150Z,19
2022-10-19T23:04:36.858Z,19
2022-10-19T23:06:36.951Z,18
2022-10-19T23:08:37.121Z,22
2022-10-19T23:10:37.168Z,22
2022-10-19T23:12:37.275Z,22
2022-10-19T23:14:37.362Z,20
2022-10-19T23:16:37.468Z,21
2022-10-19T23:18:37.570Z,21
2022-10-19T23:20:37.680Z,20
2022-10-19T23:22:37.769Z,20
2022-10-19T23:24:37.874Z,19
2022-10-19T23:26:37.989Z,18
2022-10-19T23:28:38.072Z,21
2022-10-19T23:32:38.273Z,21
2022-10-19T23:34:40.215Z,21
2022-10-19T23:36:38.455Z,20
2022-10-19T23:38:38.563Z,20
2022-10-19T23:40:38.652Z,21
2022-10-19T23:42:38.739Z,23
2022-10-19T23:44:38.812Z,23
2022-10-19T23:46:38.913Z,20
2022-10-19T23:48:39.019Z,18
2022-10-19T23:50:39.157Z,20
2022-10-19T23:54:39.308Z,19
2022-10-19T23:56:39.398Z,20
2022-10-19T23:58:39.507Z,22
